Time;durP1;ratioP1;P1;durP2;ratioP2;P2;SDS_P1;SDS_P2;PMS_P1;PMS_P2;Temp;Humidity;BMP_temperature;BMP_pressure;BME280_temperature;BME280_humidity;BME280_pressure;Samples;Min_cycle;Max_cycle;Signal;HPM_P1;HPM_P2
2023/09/08 04:05:57;;;;;;;10.43;7.62;;;;;;;19.21;86.01;101166.09;5606162;31;75849;-56
2023/09/08 04:09:00;;;;;;;8.70;6.93;;;;;;;19.21;86.01;101166.09;5603003;31;34046;-56
2023/09/08 04:12:02;;;;;;;9.48;6.95;;;;;;;18.73;87.17;101164.25;5602966;31;33654;-57
2023/09/08 04:15:06;;;;;;;8.13;6.82;;;;;;;18.73;78.19;101172.41;5603196;31;33536;-57
2023/09/08 04:18:08;;;;;;;11.80;6.47;;;;;;;18.78;75.91;101164.12;5603146;31;33079;-56
2023/09/08 04:21:11;;;;;;;9.65;6.50;;;;;;;18.69;90.53;101171.41;5602856;31;33705;-57
2023/09/08 04:24:13;;;;;;;10.05;6.72;;;;;;;18.57;80.01;101171.19;5602988;31;33559;-58
2023/09/08 04:27:16;;;;;;;11.48;6.35;;;;;;;18.68;79.12;101163.59;5602857;31;33552;-57
2023/09/08 04:30:18;;;;;;;12.18;6.93;;;;;;;18.86;79.17;101170.66;5602465;31;33481;-58
2023/09/08 04:33:23;;;;;;;10.18;6.62;;;;;;;18.76;81.92;101165.53;5603086;31;33175;-56
2023/09/08 04:36:25;;;;;;;8.48;6.72;;;;;;;18.64;78.87;101166.13;5602569;31;33720;-58
2023/09/08 04:39:28;;;;;;;9.32;6.72;;;;;;;18.73;93.75;101169.69;5601924;31;33610;-57
2023/09/08 04:42:30;;;;;;;8.45;5.95;;;;;;;18.74;80.03;101165.87;5583237;32;34362;-57
2023/09/08 04:45:34;;;;;;;8.32;6.22;;;;;;;18.83;96.18;101170.50;5584894;31;32035;-57
2023/09/08 04:48:36;;;;;;;9.65;7.10;;;;;;;18.84;79.17;101175.63;5590502;31;34361;-58
2023/09/08 04:51:43;;;;;;;10.45;6.90;;;;;;;18.93;96.16;101181.06;5582952;31;33566;-57
2023/09/08 04:54:45;;;;;;;8.57;7.18;;;;;;;19.01;79.95;101189.25;5585084;31;33408;-57
2023/09/08 04:57:49;;;;;;;10.10;6.90;;;;;;;19.09;93.02;101182.22;5592744;31;34265;-57
2023/09/08 05:00:51;;;;;;;15.05;7.37;;;;;;;19.05;76.98;101170.38;5582993;31;33174;-56
2023/09/08 05:03:55;;;;;;;12.63;7.55;;;;;;;19.14;88.56;101175.81;5581752;32;33485;-57
2023/09/08 05:06:57;;;;;;;12.27;7.50;;;;;;;19.19;76.76;101179.19;5598105;31;33680;-57
2023/09/08 05:10:01;;;;;;;13.70;7.43;;;;;;;19.22;84.22;101175.03;5602113;31;33363;-58
2023/09/08 05:13:04;;;;;;;13.45;6.80;;;;;;;19.20;80.56;101179.97;5601997;31;34374;-57
2023/09/08 05:16:16;;;;;;;10.38;7.10;;;;;;;19.23;76.54;101182.06;5584538;31;33511;-57
2023/09/08 05:19:18;;;;;;;11.12;7.85;;;;;;;19.24;85.12;101180.97;5589187;31;33539;-57
2023/09/08 05:22:21;;;;;;;9.57;7.40;;;;;;;19.28;77.65;101179.19;5588972;31;33663;-57
2023/09/08 05:25:24;;;;;;;15.98;8.02;;;;;;;19.45;94.20;101181.12;5579698;31;34546;-57
2023/09/08 05:28:27;;;;;;;10.15;7.60;;;;;;;19.64;79.26;101189.78;5588297;31;33305;-57
2023/09/08 05:31:29;;;;;;;13.50;7.80;;;;;;;19.58;75.27;101195.69;5588519;31;33769;-57
2023/09/08 05:34:32;;;;;;;19.85;8.52;;;;;;;19.72;86.58;101190.88;5589172;31;34320;-58
2023/09/08 05:37:35;;;;;;;36.10;9.70;;;;;;;19.75;75.80;101192.16;5570330;31;33660;-58
2023/09/08 05:40:38;;;;;;;16.65;8.05;;;;;;;19.92;80.86;101197.56;5569403;32;33603;-57
2023/09/08 05:43:40;;;;;;;14.60;7.85;;;;;;;20.08;76.08;101187.78;5569567;31;34598;-59
2023/09/08 05:46:43;;;;;;;12.95;7.47;;;;;;;20.17;76.43;101198.66;5567121;31;33563;-57
2023/09/08 05:49:46;;;;;;;39.75;8.43;;;;;;;20.28;72.24;101189.00;5568847;32;33357;-57
2023/09/08 05:52:50;;;;;;;36.08;8.82;;;;;;;20.36;77.66;101190.91;5568974;31;33390;-56
2023/09/08 05:55:53;;;;;;;29.45;8.40;;;;;;;20.42;73.79;101191.50;5570824;31;32100;-57
2023/09/08 05:58:55;;;;;;;162.62;19.17;;;;;;;20.50;75.58;101187.94;5579230;31;34785;-57
2023/09/08 06:01:58;;;;;;;55.35;11.73;;;;;;;20.59;72.95;101187.91;5568483;31;33329;-59
2023/09/08 06:05:01;;;;;;;17.00;7.72;;;;;;;20.72;73.22;101189.63;5568750;31;34302;-57
2023/09/08 06:08:04;;;;;;;16.42;6.85;;;;;;;20.73;69.23;101187.69;5567371;32;33753;-58
2023/09/08 06:11:12;;;;;;;11.68;7.20;;;;;;;20.75;69.02;101193.63;5566259;32;33217;-57
2023/09/08 06:14:15;;;;;;;12.40;8.10;;;;;;;20.93;76.11;101189.66;5566062;31;33680;-57
2023/09/08 06:17:19;;;;;;;10.60;7.35;;;;;;;20.89;69.16;101188.72;5566132;31;33238;-57
2023/09/08 06:20:21;;;;;;;12.80;7.35;;;;;;;20.91;68.05;101194.66;5567383;31;32298;-57
2023/09/08 06:23:24;;;;;;;28.60;8.20;;;;;;;21.04;72.35;101193.59;5568035;31;33416;-57
2023/09/08 06:26:28;;;;;;;17.95;7.53;;;;;;;21.09;68.63;101203.50;5566991;31;31872;-58
2023/09/08 06:29:31;;;;;;;15.93;8.25;;;;;;;21.14;68.07;101200.59;5565397;31;32109;-56
2023/09/08 06:32:34;;;;;;;11.05;6.78;;;;;;;21.22;67.89;101205.16;5567241;31;33412;-57
2023/09/08 06:35:37;;;;;;;13.15;6.78;;;;;;;21.33;76.17;101211.03;5575131;31;33364;-57
2023/09/08 06:38:39;;;;;;;12.70;7.15;;;;;;;21.21;65.82;101203.59;5567645;31;33386;-57
2023/09/08 06:41:42;;;;;;;14.27;7.07;;;;;;;21.26;68.99;101199.87;5568628;32;33543;-56
2023/09/08 06:44:45;;;;;;;14.45;7.65;;;;;;;21.46;74.48;101207.28;5568175;31;33168;-57
2023/09/08 06:47:50;;;;;;;13.50;7.22;;;;;;;21.42;66.96;101200.88;5568503;31;33483;-57
2023/09/08 06:50:54;;;;;;;11.37;7.27;;;;;;;21.48;67.81;101198.75;5565597;31;33502;-57
2023/09/08 06:53:57;;;;;;;12.18;8.27;;;;;;;21.53;74.83;101204.00;5568624;31;32890;-57
2023/09/08 06:57:00;;;;;;;17.40;7.62;;;;;;;21.52;67.15;101203.22;5566945;31;33270;-57
2023/09/08 07:00:06;;;;;;;12.25;7.40;;;;;;;21.64;67.92;101209.84;5567611;32;33595;-57
2023/09/08 07:03:08;;;;;;;;;;;;;;;21.65;69.96;101204.03;5570326;31;32221;-56
2023/09/08 07:06:11;;;;;;;11.48;7.47;;;;;;;21.67;69.45;101198.28;5568109;31;33971;-62
2023/09/08 07:09:13;;;;;;;12.27;7.37;;;;;;;21.75;73.43;101203.63;5566230;31;34449;-57
2023/09/08 07:12:17;;;;;;;29.98;8.57;;;;;;;21.75;64.23;101197.38;5567150;31;33251;-57
2023/09/08 07:15:20;;;;;;;10.60;7.37;;;;;;;21.63;65.16;101206.34;5573091;31;34447;-57
2023/09/08 07:18:23;;;;;;;11.70;6.70;;;;;;;21.81;62.67;101196.03;5561313;31;34760;-57
2023/09/08 07:21:25;;;;;;;15.30;7.45;;;;;;;21.84;72.81;101197.31;5566855;31;33435;-57
2023/09/08 07:24:28;;;;;;;11.32;7.37;;;;;;;21.88;65.84;101196.28;5567548;31;33660;-57
2023/09/08 07:27:31;;;;;;;11.07;6.90;;;;;;;21.91;65.85;101192.87;5566206;31;31702;-57
2023/09/08 07:30:33;;;;;;;12.30;7.80;;;;;;;21.96;64.97;101189.16;5566611;32;33522;-57
2023/09/08 07:33:36;;;;;;;10.18;7.10;;;;;;;21.90;63.04;101183.09;5568191;32;34575;-58
2023/09/08 07:36:39;;;;;;;10.73;7.15;;;;;;;21.98;67.57;101179.47;5569313;31;33600;-58
2023/09/08 07:39:43;;;;;;;14.63;7.93;;;;;;;22.01;68.83;101176.06;5566160;31;32850;-59
2023/09/08 07:42:46;;;;;;;44.25;10.85;;;;;;;22.08;66.46;101169.25;5566655;32;34326;-57
2023/09/08 07:45:48;;;;;;;28.50;7.93;;;;;;;22.11;64.93;101172.09;5567529;31;33835;-58
2023/09/08 07:48:51;;;;;;;12.05;7.03;;;;;;;22.14;66.12;101176.09;5567478;32;34345;-56
2023/09/08 07:51:53;;;;;;;15.88;7.68;;;;;;;22.26;64.21;101176.94;5567499;32;34064;-57
2023/09/08 07:54:55;;;;;;;18.35;7.47;;;;;;;22.22;62.00;101167.06;5567212;32;33295;-58
2023/09/08 07:57:58;;;;;;;12.40;7.22;;;;;;;22.33;62.12;101170.91;5566508;32;34416;-57
2023/09/08 08:01:00;;;;;;;10.45;7.15;;;;;;;22.43;61.95;101170.47;5565803;31;33542;-57
2023/09/08 08:04:03;;;;;;;12.10;7.30;;;;;;;22.40;65.73;101173.09;5566383;32;33700;-57
2023/09/08 08:07:06;;;;;;;9.88;7.18;;;;;;;22.46;64.39;101172.53;5567009;31;34228;-57
2023/09/08 08:10:09;;;;;;;11.75;7.15;;;;;;;22.45;60.64;101170.94;5566624;32;33244;-56
2023/09/08 08:13:11;;;;;;;18.00;8.57;;;;;;;22.50;64.17;101172.63;5570330;31;33614;-56
2023/09/08 08:16:14;;;;;;;10.43;7.07;;;;;;;22.47;60.42;101176.03;5573037;31;33607;-57
2023/09/08 08:19:16;;;;;;;10.80;7.45;;;;;;;22.52;63.86;101171.16;5577518;31;33697;-57
2023/09/08 08:22:19;;;;;;;11.90;7.35;;;;;;;22.62;62.47;101171.84;5574775;31;33195;-57
2023/09/08 08:25:21;;;;;;;9.95;6.87;;;;;;;22.67;62.16;101160.66;5569853;31;33445;-58
2023/09/08 08:28:24;;;;;;;16.65;8.07;;;;;;;22.68;63.21;101167.72;5569192;31;33510;-57
2023/09/08 08:31:26;;;;;;;12.88;7.75;;;;;;;22.66;60.38;101164.53;5580940;31;34010;-57
2023/09/08 08:34:29;;;;;;;16.10;7.62;;;;;;;22.70;60.26;101168.19;5566041;31;33967;-56
2023/09/08 08:37:31;;;;;;;12.10;7.90;;;;;;;22.74;61.64;101156.22;5566830;31;34695;-57
2023/09/08 08:40:39;;;;;;;12.25;7.50;;;;;;;22.81;58.85;101158.38;5568068;31;34263;-58
2023/09/08 08:43:42;;;;;;;8.90;7.45;;;;;;;22.86;63.84;101157.34;5563593;31;34242;-57
2023/09/08 08:46:47;;;;;;;11.43;7.10;;;;;;;22.87;60.13;101157.00;5572523;31;32320;-57
2023/09/08 08:49:51;;;;;;;14.85;7.05;;;;;;;23.00;63.28;101152.31;5546701;32;34722;-58
2023/09/08 08:52:55;;;;;;;14.73;7.28;;;;;;;23.05;59.09;101149.37;5576021;31;33248;-57
2023/09/08 08:55:59;;;;;;;19.02;7.57;;;;;;;23.12;58.98;101146.03;5569367;31;34246;-57
2023/09/08 08:59:03;;;;;;;10.03;7.07;;;;;;;23.10;59.87;101151.06;5579317;31;33294;-57
2023/09/08 09:02:05;;;;;;;12.65;7.18;;;;;;;23.15;61.18;101148.87;5572213;31;33665;-58
2023/09/08 09:05:13;;;;;;;12.43;7.47;;;;;;;23.28;59.89;101146.09;5569080;31;33623;-56
2023/09/08 09:08:17;;;;;;;12.43;7.62;;;;;;;23.18;59.77;101150.91;5571122;31;34041;-57
2023/09/08 09:11:19;;;;;;;10.93;8.23;;;;;;;23.12;59.33;101146.03;5573005;31;33667;-57
2023/09/08 09:14:23;;;;;;;11.77;8.07;;;;;;;23.18;58.13;101147.41;5576743;31;33807;-57
2023/09/08 09:17:26;;;;;;;11.60;7.45;;;;;;;23.29;58.98;101144.97;5570576;31;33676;-57
2023/09/08 09:20:28;;;;;;;12.55;8.07;;;;;;;23.33;60.28;101138.44;5572257;31;33733;-57
2023/09/08 09:23:33;;;;;;;15.23;7.80;;;;;;;23.44;58.11;101135.97;5567699;31;34378;-57
2023/09/08 09:26:35;;;;;;;11.60;7.23;;;;;;;23.49;57.71;101138.47;5556229;31;33824;-57
2023/09/08 09:29:48;;;;;;;13.00;7.50;;;;;;;23.49;58.46;101134.94;5569571;31;33651;-57
2023/09/08 09:33:03;;;;;;;13.77;7.35;;;;;;;23.44;61.30;101145.00;5569036;31;33665;-57
2023/09/08 09:36:07;;;;;;;11.02;7.72;;;;;;;23.66;57.05;101132.69;5568899;31;34425;-56
2023/09/08 09:39:09;;;;;;;11.52;7.30;;;;;;;23.52;59.88;101126.03;5579064;31;33691;-58
2023/09/08 09:42:12;;;;;;;14.25;7.78;;;;;;;23.63;58.25;101138.84;5571423;31;34100;-57
2023/09/08 09:45:17;;;;;;;;;;;;;;;23.58;59.57;101133.66;5569483;31;34563;-56
2023/09/08 09:48:22;;;;;;;14.90;8.13;;;;;;;23.61;58.13;101130.22;5586792;31;34608;-57
2023/09/08 09:51:25;;;;;;;24.92;8.10;;;;;;;23.68;59.58;101127.69;5576471;31;34359;-58
2023/09/08 09:54:28;;;;;;;16.52;8.05;;;;;;;23.83;57.57;101130.78;5571823;31;33168;-57
2023/09/08 09:57:31;;;;;;;13.60;7.62;;;;;;;23.86;58.31;101125.41;5566199;31;33317;-57
2023/09/08 10:00:35;;;;;;;12.07;7.03;;;;;;;23.98;59.79;101119.06;5571359;31;33403;-58
2023/09/08 10:03:39;;;;;;;11.95;7.78;;;;;;;24.03;60.05;101126.22;5568109;32;34251;-57
2023/09/08 10:06:43;;;;;;;12.07;7.72;;;;;;;24.09;55.11;101120.12;5567560;32;33099;-57
2023/09/08 10:09:46;;;;;;;13.55;7.40;;;;;;;24.19;55.59;101121.53;5558718;32;34116;-57
2023/09/08 10:12:57;;;;;;;10.82;7.18;;;;;;;24.15;55.37;101115.19;5567993;32;34338;-57
2023/09/08 10:16:02;;;;;;;13.23;7.05;;;;;;;24.21;57.16;101113.75;5569691;31;33420;-56
2023/09/08 10:19:08;;;;;;;7.50;6.22;;;;;;;24.33;55.54;101126.53;5570807;31;34439;-56
2023/09/08 10:22:15;;;;;;;9.13;6.22;;;;;;;24.24;52.00;101112.22;5568520;31;33341;-57
2023/09/08 10:25:20;;;;;;;8.38;5.87;;;;;;;24.22;52.45;101109.06;5567639;31;33771;-58
2023/09/08 10:28:23;;;;;;;9.35;6.50;;;;;;;24.30;52.52;101106.12;5569220;31;33584;-58
2023/09/08 10:31:27;;;;;;;8.93;5.90;;;;;;;24.36;51.43;101101.19;5573639;31;34314;-57
2023/09/08 10:34:32;;;;;;;9.82;6.28;;;;;;;24.41;51.70;101091.94;5582595;31;33644;-56
2023/09/08 10:37:34;;;;;;;13.68;6.78;;;;;;;24.49;52.37;101094.47;5571772;31;31864;-56
2023/09/08 10:40:38;;;;;;;16.52;6.45;;;;;;;24.49;51.59;101099.94;5570627;31;34423;-56
2023/09/08 10:43:45;;;;;;;8.93;6.15;;;;;;;24.54;52.86;101091.44;5575681;31;33888;-57
2023/09/08 10:46:48;;;;;;;11.68;5.68;;;;;;;24.70;48.75;101088.66;5560406;31;34056;-57
2023/09/08 10:49:53;;;;;;;11.77;5.62;;;;;;;24.68;49.43;101085.47;5564703;31;33713;-57
2023/09/08 10:53:13;;;;;;;11.32;6.25;;;;;;;24.71;48.84;101084.78;5566222;31;34331;-59
2023/09/08 10:56:18;;;;;;;8.50;5.85;;;;;;;24.80;48.12;101076.31;5567260;31;33689;-56
2023/09/08 10:59:27;;;;;;;18.43;6.00;;;;;;;24.85;48.40;101087.81;5568347;31;33627;-58
2023/09/08 11:02:39;;;;;;;8.20;5.32;;;;;;;24.88;49.13;101083.56;5574279;31;33752;-57
2023/09/08 11:05:43;;;;;;;10.18;5.72;;;;;;;24.84;46.52;101069.78;5563236;31;33418;-56
2023/09/08 11:08:46;;;;;;;9.23;5.32;;;;;;;25.11;45.45;101075.41;5555836;31;32775;-56
2023/09/08 11:11:50;;;;;;;9.70;5.68;;;;;;;24.95;46.97;101069.97;5566686;31;32015;-56
2023/09/08 11:14:53;;;;;;;10.05;5.32;;;;;;;24.93;48.68;101064.06;5559371;31;33389;-56
2023/09/08 11:17:56;;;;;;;16.60;7.00;;;;;;;25.10;47.29;101082.03;5567081;31;33522;-57
2023/09/08 11:21:03;;;;;;;9.98;6.03;;;;;;;25.10;46.05;101071.06;5562807;31;33771;-57
2023/09/08 11:24:06;;;;;;;13.27;5.62;;;;;;;25.04;46.42;101069.78;5568832;31;33432;-57
2023/09/08 11:27:10;;;;;;;8.95;5.43;;;;;;;25.17;44.59;101062.22;5575353;31;33628;-57
2023/09/08 11:30:13;;;;;;;8.15;4.87;;;;;;;25.23;46.07;101064.31;5559876;31;33365;-57
2023/09/08 11:33:17;;;;;;;10.57;5.60;;;;;;;25.16;45.35;101058.66;5574448;31;33735;-56
2023/09/08 11:36:20;;;;;;;7.17;4.77;;;;;;;25.26;44.89;101062.75;5559606;31;33588;-57
2023/09/08 11:39:25;;;;;;;8.55;5.80;;;;;;;25.25;44.42;101048.25;5568073;31;33747;-56
2023/09/08 11:42:28;;;;;;;;;;;;;;;25.33;45.12;101048.38;5584483;31;33934;-56
2023/09/08 11:45:30;;;;;;;7.18;4.90;;;;;;;25.31;44.44;101054.25;5568496;31;33966;-56
2023/09/08 11:48:33;;;;;;;11.43;5.25;;;;;;;25.46;43.45;101047.03;5571665;31;34297;-56
2023/09/08 11:51:37;;;;;;;7.07;4.90;;;;;;;25.42;44.55;101043.44;5565512;32;33670;-57
2023/09/08 11:54:41;;;;;;;9.70;4.82;;;;;;;25.49;44.84;101043.56;5567082;32;33579;-57
2023/09/08 11:58:04;;;;;;;9.77;5.22;;;;;;;25.55;42.82;101044.84;5567930;32;34521;-56
2023/09/08 12:01:07;;;;;;;10.38;4.90;;;;;;;25.47;43.82;101045.91;5565828;31;34386;-56
2023/09/08 12:04:19;;;;;;;8.60;5.07;;;;;;;25.55;43.04;101039.38;5567462;32;34453;-57
2023/09/08 12:07:21;;;;;;;10.73;5.28;;;;;;;25.50;43.45;101032.25;5570636;31;33626;-56
2023/09/08 12:10:25;;;;;;;11.90;5.43;;;;;;;25.44;42.30;101032.91;5586811;31;34540;-56
2023/09/08 12:13:27;;;;;;;12.85;5.37;;;;;;;25.41;44.53;101036.38;5566818;31;33661;-57
2023/09/08 12:16:30;;;;;;;6.62;5.05;;;;;;;25.44;42.61;101021.94;5567787;32;33696;-57
2023/09/08 12:19:32;;;;;;;8.95;5.57;;;;;;;25.40;42.99;101018.34;5566744;32;33867;-57
2023/09/08 12:22:35;;;;;;;10.20;5.40;;;;;;;25.57;42.60;101011.56;5565651;31;34321;-56
2023/09/08 12:25:45;;;;;;;7.87;5.00;;;;;;;25.61;43.01;101009.66;5565197;31;34393;-57
2023/09/08 12:28:48;;;;;;;11.12;5.05;;;;;;;25.52;41.84;101007.16;5568317;32;33822;-57
2023/09/08 12:31:51;;;;;;;10.32;5.32;;;;;;;25.75;40.79;101007.13;5569615;32;33722;-57
2023/09/08 12:34:54;;;;;;;7.07;4.70;;;;;;;25.71;40.39;100995.31;5569552;32;33619;-56
2023/09/08 12:38:05;;;;;;;8.45;5.03;;;;;;;25.65;40.85;100997.56;5569645;32;34425;-57
2023/09/08 12:41:07;;;;;;;11.50;5.65;;;;;;;25.62;41.32;100994.75;5569069;31;33866;-56
2023/09/08 12:44:10;;;;;;;8.50;4.68;;;;;;;25.63;42.40;100991.66;5565553;32;33759;-58
2023/09/08 12:47:13;;;;;;;11.27;5.70;;;;;;;25.68;42.44;100999.56;5568818;31;34411;-57
2023/09/08 12:50:15;;;;;;;7.87;5.43;;;;;;;25.67;41.64;100998.00;5568399;31;33694;-56
2023/09/08 12:53:18;;;;;;;11.55;5.85;;;;;;;25.74;42.23;100981.63;5570313;32;33627;-57
2023/09/08 12:56:20;;;;;;;8.88;5.35;;;;;;;25.74;41.43;100978.09;5569029;32;34377;-57
2023/09/08 12:59:23;;;;;;;9.40;4.85;;;;;;;25.72;41.53;100978.44;5569511;32;34377;-56
2023/09/08 13:02:25;;;;;;;7.00;4.95;;;;;;;25.70;41.92;100975.31;5569446;32;33662;-58
2023/09/08 13:05:28;;;;;;;7.60;4.75;;;;;;;25.80;42.56;100971.16;5569190;32;33818;-57
2023/09/08 13:08:31;;;;;;;7.10;5.25;;;;;;;25.87;41.35;100973.22;5569660;32;34289;-56
2023/09/08 13:11:33;;;;;;;8.63;5.20;;;;;;;25.87;39.88;100967.72;5569581;32;33735;-56
2023/09/08 13:14:36;;;;;;;7.93;5.12;;;;;;;25.80;40.42;100967.59;5569349;32;33690;-56
2023/09/08 13:17:38;;;;;;;11.38;5.30;;;;;;;25.83;40.83;100967.69;5569109;32;33768;-56
2023/09/08 13:20:41;;;;;;;7.20;5.00;;;;;;;25.87;40.71;100967.72;5565609;32;33598;-56
2023/09/08 13:23:43;;;;;;;13.00;5.37;;;;;;;25.82;39.83;100962.53;5566406;32;34386;-58
2023/09/08 13:26:45;;;;;;;12.30;5.20;;;;;;;25.80;40.99;100970.34;5569443;32;33771;-57
2023/09/08 13:29:48;;;;;;;7.62;4.85;;;;;;;25.77;40.89;100958.94;5566361;32;32132;-56
2023/09/08 13:32:50;;;;;;;6.45;4.50;;;;;;;25.82;41.44;100957.06;5568878;32;33748;-56
2023/09/08 13:35:53;;;;;;;11.12;4.65;;;;;;;25.89;41.68;100965.38;5569023;32;34295;-56
2023/09/08 13:38:55;;;;;;;8.10;4.68;;;;;;;25.85;39.93;100954.34;5569614;32;33697;-56
2023/09/08 13:42:00;;;;;;;16.85;5.43;;;;;;;25.75;40.14;100949.47;5568023;31;33657;-56
2023/09/08 13:45:03;;;;;;;21.83;5.68;;;;;;;25.82;42.02;100943.31;5551078;32;33919;-56
2023/09/08 13:48:06;;;;;;;9.00;5.28;;;;;;;25.78;43.99;100944.03;5568728;32;33784;-56
2023/09/08 13:51:09;;;;;;;8.05;5.25;;;;;;;25.83;41.79;100942.16;5569392;32;33627;-56
2023/09/08 13:54:12;;;;;;;9.10;5.00;;;;;;;25.88;41.35;100942.63;5569449;32;33720;-57
2023/09/08 13:57:19;;;;;;;12.98;5.35;;;;;;;25.88;40.84;100931.66;5569808;32;34338;-56
2023/09/08 14:00:24;;;;;;;8.80;5.40;;;;;;;25.89;42.27;100937.94;5569409;32;33643;-57
2023/09/08 14:03:27;;;;;;;10.25;5.37;;;;;;;25.87;42.78;100932.81;5569665;32;33561;-57
2023/09/08 14:06:32;;;;;;;15.20;5.47;;;;;;;25.81;40.99;100920.56;5568791;32;33762;-57
2023/09/08 14:09:38;;;;;;;18.33;5.75;;;;;;;25.88;42.87;100926.16;5569756;32;33991;-56
2023/09/08 14:12:54;;;;;;;11.30;5.40;;;;;;;25.83;41.70;100929.25;5569642;32;34532;-56
2023/09/08 14:15:57;;;;;;;83.10;11.02;;;;;;;25.81;41.56;100917.03;5569521;32;33767;-57
2023/09/08 14:19:03;;;;;;;10.93;5.50;;;;;;;25.82;42.16;100919.38;5569409;32;33728;-56
2023/09/08 14:22:06;;;;;;;7.35;4.43;;;;;;;25.90;40.74;100917.56;5569643;32;34311;-56
2023/09/08 14:25:08;;;;;;;13.07;5.40;;;;;;;25.91;40.15;100919.91;5569558;32;33651;-56
2023/09/08 14:28:10;;;;;;;10.02;5.00;;;;;;;25.85;39.16;100910.41;5569388;32;34542;-57
2023/09/08 14:31:13;;;;;;;9.40;4.65;;;;;;;25.86;41.16;100913.94;5568876;32;34263;-56
2023/09/08 14:34:15;;;;;;;13.43;5.72;;;;;;;25.89;39.79;100914.00;5550098;32;33749;-57
2023/09/08 14:37:17;;;;;;;10.70;4.97;;;;;;;25.90;40.68;100901.87;5558960;32;33196;-56
2023/09/08 14:40:23;;;;;;;10.00;5.30;;;;;;;25.96;40.12;100910.56;5562003;32;33814;-57
2023/09/08 14:43:26;;;;;;;10.15;5.20;;;;;;;25.93;42.39;100909.38;5568496;32;34299;-56
2023/09/08 14:46:28;;;;;;;8.07;4.82;;;;;;;25.81;41.56;100906.84;5568185;32;33728;-57
2023/09/08 14:49:31;;;;;;;16.35;5.10;;;;;;;25.83;41.05;100903.69;5567109;32;33641;-56
2023/09/08 14:52:33;;;;;;;6.68;5.28;;;;;;;25.80;39.46;100898.94;5567500;32;34492;-56
2023/09/08 14:55:36;;;;;;;7.15;4.72;;;;;;;25.74;38.73;100898.47;5569452;32;33817;-57
2023/09/08 14:58:38;;;;;;;6.30;4.68;;;;;;;25.68;39.45;100895.25;5568857;32;34415;-56
2023/09/08 15:01:42;;;;;;;8.00;4.47;;;;;;;25.75;39.80;100900.84;5569102;32;33773;-57
2023/09/08 15:04:45;;;;;;;7.28;5.12;;;;;;;25.74;39.52;100893.75;5568957;32;33653;-57
